Crotts Aircraft Service, Inc.
Current METAR for KDDC
KDDC 231052Z AUTO 18016G26KT 10SM CLR 14/08 A2976 RMK AO2 PK WND 18026/1045 SLP055 T01440078